sensor_id;sensor_type;location;lat;lon;timestamp;pressure;altitude;pressure_sealevel;temperature;humidity
71938;BME280;59810;48.800;9.086;2023-02-01T00:02:00;98293.03;;;3.09;86.51
71938;BME280;59810;48.800;9.086;2023-02-01T00:04:26;98299.84;;;3.12;86.62
71938;BME280;59810;48.800;9.086;2023-02-01T00:06:51;98291.84;;;3.12;86.51
71938;BME280;59810;48.800;9.086;2023-02-01T00:09:17;98285.50;;;3.13;86.36
71938;BME280;59810;48.800;9.086;2023-02-01T00:11:45;98271.78;;;3.16;86.20
71938;BME280;59810;48.800;9.086;2023-02-01T00:14:11;98269.28;;;3.15;86.31
71938;BME280;59810;48.800;9.086;2023-02-01T00:16:36;98261.47;;;3.13;86.21
71938;BME280;59810;48.800;9.086;2023-02-01T00:19:06;98281.63;;;3.16;86.06
71938;BME280;59810;48.800;9.086;2023-02-01T00:21:32;98273.81;;;3.14;86.25
71938;BME280;59810;48.800;9.086;2023-02-01T00:23:58;98268.84;;;3.11;86.29
71938;BME280;59810;48.800;9.086;2023-02-01T00:26:35;98275.00;;;3.11;85.91
71938;BME280;59810;48.800;9.086;2023-02-01T00:29:04;98284.84;;;3.11;86.04
71938;BME280;59810;48.800;9.086;2023-02-01T00:31:30;98279.78;;;3.16;86.01
71938;BME280;59810;48.800;9.086;2023-02-01T00:33:55;98285.31;;;3.15;86.00
71938;BME280;59810;48.800;9.086;2023-02-01T00:36:21;98279.16;;;3.14;85.85
71938;BME280;59810;48.800;9.086;2023-02-01T00:38:49;98272.03;;;3.21;85.54
71938;BME280;59810;48.800;9.086;2023-02-01T00:41:21;98278.78;;;3.17;85.76
71938;BME280;59810;48.800;9.086;2023-02-01T00:43:47;98274.53;;;3.23;85.88
71938;BME280;59810;48.800;9.086;2023-02-01T00:46:15;98273.69;;;3.22;85.45
71938;BME280;59810;48.800;9.086;2023-02-01T00:48:43;98280.50;;;3.25;85.25
71938;BME280;59810;48.800;9.086;2023-02-01T00:51:17;98279.84;;;3.23;85.06
71938;BME280;59810;48.800;9.086;2023-02-01T00:53:43;98275.53;;;3.22;85.26
71938;BME280;59810;48.800;9.086;2023-02-01T00:56:09;98261.56;;;3.20;85.65
71938;BME280;59810;48.800;9.086;2023-02-01T00:58:35;98273.97;;;3.27;85.06
71938;BME280;59810;48.800;9.086;2023-02-01T01:01:18;98276.00;;;3.25;85.13
71938;BME280;59810;48.800;9.086;2023-02-01T01:03:52;98268.00;;;3.25;85.24
71938;BME280;59810;48.800;9.086;2023-02-01T01:06:23;98267.34;;;3.23;85.25
71938;BME280;59810;48.800;9.086;2023-02-01T01:08:53;98267.44;;;3.30;84.91
71938;BME280;59810;48.800;9.086;2023-02-01T01:11:21;98259.44;;;3.30;84.89
71938;BME280;59810;48.800;9.086;2023-02-01T01:13:49;98254.66;;;3.25;85.22
71938;BME280;59810;48.800;9.086;2023-02-01T01:16:15;98250.22;;;3.32;84.78
71938;BME280;59810;48.800;9.086;2023-02-01T01:18:41;98248.56;;;3.31;85.14
71938;BME280;59810;48.800;9.086;2023-02-01T01:21:08;98251.63;;;3.28;84.82
71938;BME280;59810;48.800;9.086;2023-02-01T01:23:35;98245.66;;;3.26;84.80
71938;BME280;59810;48.800;9.086;2023-02-01T01:26:04;98248.13;;;3.28;85.14
71938;BME280;59810;48.800;9.086;2023-02-01T01:28:30;98245.47;;;3.28;85.21
71938;BME280;59810;48.800;9.086;2023-02-01T01:30:56;98250.59;;;3.29;85.05
71938;BME280;59810;48.800;9.086;2023-02-01T01:33:21;98249.59;;;3.30;84.55
71938;BME280;59810;48.800;9.086;2023-02-01T01:35:46;98256.84;;;3.36;84.09
71938;BME280;59810;48.800;9.086;2023-02-01T01:38:11;98255.19;;;3.35;84.14
71938;BME280;59810;48.800;9.086;2023-02-01T01:40:37;98251.50;;;3.36;84.07
71938;BME280;59810;48.800;9.086;2023-02-01T01:43:16;98238.16;;;3.36;83.83
71938;BME280;59810;48.800;9.086;2023-02-01T01:45:43;98244.69;;;3.34;84.30
71938;BME280;59810;48.800;9.086;2023-02-01T01:48:17;98245.34;;;3.36;84.14
71938;BME280;59810;48.800;9.086;2023-02-01T01:51:10;98236.69;;;3.34;84.34
71938;BME280;59810;48.800;9.086;2023-02-01T01:53:48;98235.50;;;3.36;83.92
71938;BME280;59810;48.800;9.086;2023-02-01T01:56:19;98225.19;;;3.33;84.13
71938;BME280;59810;48.800;9.086;2023-02-01T01:58:49;98230.41;;;3.41;83.79
71938;BME280;59810;48.800;9.086;2023-02-01T02:01:16;98231.41;;;3.40;83.99
71938;BME280;59810;48.800;9.086;2023-02-01T02:03:43;98221.75;;;3.39;83.95
71938;BME280;59810;48.800;9.086;2023-02-01T02:06:21;98214.38;;;3.41;83.62
71938;BME280;59810;48.800;9.086;2023-02-01T02:08:49;98226.72;;;3.42;83.53
71938;BME280;59810;48.800;9.086;2023-02-01T02:11:16;98227.75;;;3.41;83.55
71938;BME280;59810;48.800;9.086;2023-02-01T02:13:46;98230.22;;;3.43;83.44
71938;BME280;59810;48.800;9.086;2023-02-01T02:25:16;98216.69;;;3.44;83.57
71938;BME280;59810;48.800;9.086;2023-02-01T02:30:49;98212.59;;;3.49;83.42
71938;BME280;59810;48.800;9.086;2023-02-01T02:36:16;98220.38;;;3.43;83.83
71938;BME280;59810;48.800;9.086;2023-02-01T02:50:41;98190.88;;;3.52;83.46
71938;BME280;59810;48.800;9.086;2023-02-01T02:53:37;98192.91;;;3.50;83.68
71938;BME280;59810;48.800;9.086;2023-02-01T02:56:25;98193.78;;;3.57;83.47
71938;BME280;59810;48.800;9.086;2023-02-01T02:59:13;98189.84;;;3.53;83.67
71938;BME280;59810;48.800;9.086;2023-02-01T03:01:58;98180.00;;;3.53;83.67
71938;BME280;59810;48.800;9.086;2023-02-01T03:04:42;98182.22;;;3.50;83.96
71938;BME280;59810;48.800;9.086;2023-02-01T03:09:40;98189.59;;;3.48;84.05
71938;BME280;59810;48.800;9.086;2023-02-01T03:12:13;98191.63;;;3.46;84.39
71938;BME280;59810;48.800;9.086;2023-02-01T03:15:05;98189.84;;;3.53;84.12
71938;BME280;59810;48.800;9.086;2023-02-01T03:17:39;98184.50;;;3.53;84.05
71938;BME280;59810;48.800;9.086;2023-02-01T03:20:07;98180.19;;;3.52;83.94
71938;BME280;59810;48.800;9.086;2023-02-01T03:22:37;98180.00;;;3.53;84.06
71938;BME280;59810;48.800;9.086;2023-02-01T03:25:17;98167.03;;;3.50;84.35
71938;BME280;59810;48.800;9.086;2023-02-01T03:27:50;98160.88;;;3.50;84.60
71938;BME280;59810;48.800;9.086;2023-02-01T03:30:25;98154.06;;;3.47;85.00
71938;BME280;59810;48.800;9.086;2023-02-01T03:33:00;98138.69;;;3.49;84.96
71938;BME280;59810;48.800;9.086;2023-02-01T03:43:42;98127.56;;;3.46;84.59
71938;BME280;59810;48.800;9.086;2023-02-01T03:48:36;98148.16;;;3.52;84.53
71938;BME280;59810;48.800;9.086;2023-02-01T03:51:04;98150.63;;;3.53;84.55
71938;BME280;59810;48.800;9.086;2023-02-01T03:53:33;98151.91;;;3.57;84.32
71938;BME280;59810;48.800;9.086;2023-02-01T03:56:01;98138.00;;;3.62;84.58
71938;BME280;59810;48.800;9.086;2023-02-01T03:58:27;98145.72;;;3.57;85.61
71938;BME280;59810;48.800;9.086;2023-02-01T04:00:57;98142.00;;;3.51;86.04
71938;BME280;59810;48.800;9.086;2023-02-01T04:03:27;98123.94;;;3.53;85.70
71938;BME280;59810;48.800;9.086;2023-02-01T04:05:53;98136.91;;;3.56;85.50
71938;BME280;59810;48.800;9.086;2023-02-01T04:08:23;98144.91;;;3.56;85.35
71938;BME280;59810;48.800;9.086;2023-02-01T04:10:48;98142.44;;;3.55;85.25
71938;BME280;59810;48.800;9.086;2023-02-01T04:13:16;98148.25;;;3.58;85.14
71938;BME280;59810;48.800;9.086;2023-02-01T04:15:43;98142.72;;;3.60;84.49
71938;BME280;59810;48.800;9.086;2023-02-01T04:18:11;98148.69;;;3.62;84.73
71938;BME280;59810;48.800;9.086;2023-02-01T04:20:36;98151.34;;;3.62;84.46
71938;BME280;59810;48.800;9.086;2023-02-01T04:23:02;98161.00;;;3.63;84.68
71938;BME280;59810;48.800;9.086;2023-02-01T04:25:28;98168.63;;;3.66;84.25
71938;BME280;59810;48.800;9.086;2023-02-01T04:27:53;98162.66;;;3.64;84.28
71938;BME280;59810;48.800;9.086;2023-02-01T04:30:21;98157.94;;;3.66;84.12
71938;BME280;59810;48.800;9.086;2023-02-01T04:32:48;98165.31;;;3.64;84.17
71938;BME280;59810;48.800;9.086;2023-02-01T04:35:14;98154.66;;;3.64;84.09
71938;BME280;59810;48.800;9.086;2023-02-01T04:37:39;98161.84;;;3.63;83.84
71938;BME280;59810;48.800;9.086;2023-02-01T04:40:08;98164.50;;;3.63;83.94
71938;BME280;59810;48.800;9.086;2023-02-01T04:42:33;98167.38;;;3.62;83.90
71938;BME280;59810;48.800;9.086;2023-02-01T04:45:01;98165.97;;;3.66;83.87
71938;BME280;59810;48.800;9.086;2023-02-01T04:47:29;98172.94;;;3.67;83.59
71938;BME280;59810;48.800;9.086;2023-02-01T04:49:56;98170.28;;;3.67;83.73
71938;BME280;59810;48.800;9.086;2023-02-01T04:52:22;98163.34;;;3.72;83.49
71938;BME280;59810;48.800;9.086;2023-02-01T04:54:47;98143.81;;;3.72;83.27
71938;BME280;59810;48.800;9.086;2023-02-01T04:57:12;98137.25;;;3.74;83.30
71938;BME280;59810;48.800;9.086;2023-02-01T04:59:39;98137.25;;;3.74;83.27
71938;BME280;59810;48.800;9.086;2023-02-01T05:02:07;98135.41;;;3.75;83.29
71938;BME280;59810;48.800;9.086;2023-02-01T05:04:32;98143.44;;;3.75;83.15
71938;BME280;59810;48.800;9.086;2023-02-01T05:06:58;98149.16;;;3.72;83.33
71938;BME280;59810;48.800;9.086;2023-02-01T05:09:23;98154.09;;;3.75;83.10
71938;BME280;59810;48.800;9.086;2023-02-01T05:11:48;98155.19;;;3.81;82.46
71938;BME280;59810;48.800;9.086;2023-02-01T05:14:32;98154.97;;;3.82;82.32
71938;BME280;59810;48.800;9.086;2023-02-01T05:16:57;98164.00;;;3.81;82.85
71938;BME280;59810;48.800;9.086;2023-02-01T05:19:23;98163.63;;;3.84;82.52
71938;BME280;59810;48.800;9.086;2023-02-01T05:21:48;98159.75;;;3.87;82.28
71938;BME280;59810;48.800;9.086;2023-02-01T05:24:13;98151.72;;;3.87;82.21
71938;BME280;59810;48.800;9.086;2023-02-01T05:26:42;98150.16;;;3.92;82.00
71938;BME280;59810;48.800;9.086;2023-02-01T05:29:09;98156.13;;;3.94;81.87
71938;BME280;59810;48.800;9.086;2023-02-01T05:31:40;98166.19;;;3.92;82.31
71938;BME280;59810;48.800;9.086;2023-02-01T05:34:06;98156.31;;;3.93;82.36
71938;BME280;59810;48.800;9.086;2023-02-01T05:36:34;98159.41;;;3.96;82.28
71938;BME280;59810;48.800;9.086;2023-02-01T05:38:59;98161.66;;;3.93;82.15
71938;BME280;59810;48.800;9.086;2023-02-01T05:41:24;98167.63;;;3.95;82.00
71938;BME280;59810;48.800;9.086;2023-02-01T05:43:50;98175.38;;;3.90;82.45
71938;BME280;59810;48.800;9.086;2023-02-01T05:46:15;98181.03;;;4.01;81.91
71938;BME280;59810;48.800;9.086;2023-02-01T05:48:41;98174.03;;;4.00;82.62
71938;BME280;59810;48.800;9.086;2023-02-01T05:51:08;98173.41;;;3.98;83.99
71938;BME280;59810;48.800;9.086;2023-02-01T05:53:33;98170.09;;;3.96;84.33
71938;BME280;59810;48.800;9.086;2023-02-01T05:55:58;98172.16;;;3.94;85.07
71938;BME280;59810;48.800;9.086;2023-02-01T05:58:24;98158.97;;;3.93;85.70
71938;BME280;59810;48.800;9.086;2023-02-01T06:00:51;98169.88;;;3.91;85.57
71938;BME280;59810;48.800;9.086;2023-02-01T06:03:19;98159.50;;;3.82;86.05
71938;BME280;59810;48.800;9.086;2023-02-01T06:05:45;98162.75;;;3.77;86.56
71938;BME280;59810;48.800;9.086;2023-02-01T06:08:13;98152.84;;;3.71;86.14
71938;BME280;59810;48.800;9.086;2023-02-01T06:10:39;98134.00;;;3.79;85.46
71938;BME280;59810;48.800;9.086;2023-02-01T06:13:05;98138.56;;;3.85;84.86
71938;BME280;59810;48.800;9.086;2023-02-01T06:15:30;98142.25;;;3.84;85.05
71938;BME280;59810;48.800;9.086;2023-02-01T06:17:56;98130.34;;;3.87;84.37
71938;BME280;59810;48.800;9.086;2023-02-01T06:20:22;98127.50;;;3.88;84.84
71938;BME280;59810;48.800;9.086;2023-02-01T06:22:47;98134.13;;;3.92;83.82
71938;BME280;59810;48.800;9.086;2023-02-01T06:25:12;98139.25;;;3.94;83.69
71938;BME280;59810;48.800;9.086;2023-02-01T06:27:38;98150.97;;;3.93;84.22
71938;BME280;59810;48.800;9.086;2023-02-01T06:30:05;98161.25;;;3.96;83.87
71938;BME280;59810;48.800;9.086;2023-02-01T06:32:31;98160.44;;;3.95;84.12
71938;BME280;59810;48.800;9.086;2023-02-01T06:34:58;98165.38;;;3.98;83.93
71938;BME280;59810;48.800;9.086;2023-02-01T06:37:25;98158.44;;;4.04;83.13
71938;BME280;59810;48.800;9.086;2023-02-01T06:39:52;98160.75;;;4.14;82.76
71938;BME280;59810;48.800;9.086;2023-02-01T06:42:18;98152.97;;;4.19;82.57
71938;BME280;59810;48.800;9.086;2023-02-01T06:44:43;98153.59;;;4.21;82.35
71938;BME280;59810;48.800;9.086;2023-02-01T06:47:08;98156.34;;;4.27;81.37
71938;BME280;59810;48.800;9.086;2023-02-01T06:49:34;98145.44;;;4.29;81.41
71938;BME280;59810;48.800;9.086;2023-02-01T06:51:59;98135.19;;;4.32;81.17
71938;BME280;59810;48.800;9.086;2023-02-01T06:54:26;98148.34;;;4.34;80.93
71938;BME280;59810;48.800;9.086;2023-02-01T06:56:51;98144.66;;;4.35;80.62
71938;BME280;59810;48.800;9.086;2023-02-01T06:59:17;98157.41;;;4.40;80.02
71938;BME280;59810;48.800;9.086;2023-02-01T07:01:44;98157.44;;;4.46;79.70
71938;BME280;59810;48.800;9.086;2023-02-01T07:04:11;98163.63;;;4.47;79.08
71938;BME280;59810;48.800;9.086;2023-02-01T07:06:39;98170.19;;;4.44;79.70
71938;BME280;59810;48.800;9.086;2023-02-01T07:09:05;98181.50;;;4.46;79.70
71938;BME280;59810;48.800;9.086;2023-02-01T07:11:30;98187.25;;;4.43;79.58
71938;BME280;59810;48.800;9.086;2023-02-01T07:13:57;98191.56;;;4.44;79.52
71938;BME280;59810;48.800;9.086;2023-02-01T07:16:22;98193.00;;;4.40;79.66
71938;BME280;59810;48.800;9.086;2023-02-01T07:18:51;98203.09;;;4.45;79.28
71938;BME280;59810;48.800;9.086;2023-02-01T07:21:17;98204.75;;;4.46;78.93
71938;BME280;59810;48.800;9.086;2023-02-01T07:23:43;98207.22;;;4.47;78.62
71938;BME280;59810;48.800;9.086;2023-02-01T07:26:11;98220.78;;;4.46;78.63
71938;BME280;59810;48.800;9.086;2023-02-01T07:28:38;98212.38;;;4.49;78.28
71938;BME280;59810;48.800;9.086;2023-02-01T07:31:04;98217.53;;;4.50;78.19
71938;BME280;59810;48.800;9.086;2023-02-01T07:33:30;98216.75;;;4.56;78.06
71938;BME280;59810;48.800;9.086;2023-02-01T07:36:01;98213.50;;;4.61;77.27
71938;BME280;59810;48.800;9.086;2023-02-01T07:38:28;98219.88;;;4.60;77.29
71938;BME280;59810;48.800;9.086;2023-02-01T07:41:00;98207.34;;;4.67;76.73
71938;BME280;59810;48.800;9.086;2023-02-01T07:43:29;98208.59;;;4.71;76.42
71938;BME280;59810;48.800;9.086;2023-02-01T07:45:55;98204.91;;;4.72;76.26
71938;BME280;59810;48.800;9.086;2023-02-01T07:48:21;98218.50;;;4.77;75.99
71938;BME280;59810;48.800;9.086;2023-02-01T07:50:47;98228.56;;;4.75;76.25
71938;BME280;59810;48.800;9.086;2023-02-01T07:53:13;98215.81;;;4.77;76.34
71938;BME280;59810;48.800;9.086;2023-02-01T07:55:39;98214.38;;;4.75;76.21
71938;BME280;59810;48.800;9.086;2023-02-01T07:58:04;98213.53;;;4.74;76.05
71938;BME280;59810;48.800;9.086;2023-02-01T08:00:35;98212.75;;;4.80;75.92
71938;BME280;59810;48.800;9.086;2023-02-01T08:03:19;98218.72;;;4.82;75.52
71938;BME280;59810;48.800;9.086;2023-02-01T08:05:44;98211.53;;;4.83;75.61
71938;BME280;59810;48.800;9.086;2023-02-01T08:08:09;98204.31;;;4.83;75.72
71938;BME280;59810;48.800;9.086;2023-02-01T08:10:35;98216.47;;;4.86;75.96
71938;BME280;59810;48.800;9.086;2023-02-01T08:13:01;98210.75;;;4.89;75.88
71938;BME280;59810;48.800;9.086;2023-02-01T08:15:28;98207.28;;;4.95;75.10
71938;BME280;59810;48.800;9.086;2023-02-01T08:17:54;98198.84;;;4.98;75.20
71938;BME280;59810;48.800;9.086;2023-02-01T08:20:20;98204.19;;;4.98;74.74
71938;BME280;59810;48.800;9.086;2023-02-01T08:22:50;98193.06;;;4.94;74.64
71938;BME280;59810;48.800;9.086;2023-02-01T08:25:16;98192.88;;;5.03;74.56
71938;BME280;59810;48.800;9.086;2023-02-01T08:27:42;98182.00;;;5.11;73.68
71938;BME280;59810;48.800;9.086;2023-02-01T08:30:08;98181.59;;;5.14;73.69
71938;BME280;59810;48.800;9.086;2023-02-01T08:32:35;98181.38;;;5.15;73.19
71938;BME280;59810;48.800;9.086;2023-02-01T08:35:00;98197.69;;;5.20;73.54
71938;BME280;59810;48.800;9.086;2023-02-01T08:37:28;98200.38;;;5.27;72.59
71938;BME280;59810;48.800;9.086;2023-02-01T08:39:54;98210.06;;;5.35;73.52
71938;BME280;59810;48.800;9.086;2023-02-01T08:42:19;98210.09;;;5.41;72.28
71938;BME280;59810;48.800;9.086;2023-02-01T08:45:04;98221.84;;;5.47;72.13
71938;BME280;59810;48.800;9.086;2023-02-01T08:47:32;98218.78;;;5.56;73.30
71938;BME280;59810;48.800;9.086;2023-02-01T08:49:58;98210.56;;;5.84;73.98
71938;BME280;59810;48.800;9.086;2023-02-01T08:52:23;98229.50;;;5.76;70.22
71938;BME280;59810;48.800;9.086;2023-02-01T08:54:48;98227.88;;;5.82;70.45
71938;BME280;59810;48.800;9.086;2023-02-01T08:57:15;98231.56;;;5.81;71.24
71938;BME280;59810;48.800;9.086;2023-02-01T08:59:40;98225.78;;;5.71;71.13
71938;BME280;59810;48.800;9.086;2023-02-01T09:02:05;98223.53;;;5.61;70.89
71938;BME280;59810;48.800;9.086;2023-02-01T09:04:31;98214.63;;;5.47;71.43
71938;BME280;59810;48.800;9.086;2023-02-01T09:06:56;98223.25;;;5.36;72.35
71938;BME280;59810;48.800;9.086;2023-02-01T09:09:22;98232.31;;;5.28;72.49
71938;BME280;59810;48.800;9.086;2023-02-01T09:11:50;98243.22;;;5.27;72.87
71938;BME280;59810;48.800;9.086;2023-02-01T09:14:18;98242.59;;;5.31;74.67
71938;BME280;59810;48.800;9.086;2023-02-01T09:16:43;98258.88;;;5.37;76.29
71938;BME280;59810;48.800;9.086;2023-02-01T09:19:08;98244.47;;;5.38;73.12
71938;BME280;59810;48.800;9.086;2023-02-01T09:21:34;98250.44;;;5.33;72.71
71938;BME280;59810;48.800;9.086;2023-02-01T09:24:02;98252.50;;;5.31;72.71
71938;BME280;59810;48.800;9.086;2023-02-01T09:26:31;98232.53;;;5.34;72.41
71938;BME280;59810;48.800;9.086;2023-02-01T09:28:56;98246.75;;;5.41;71.99
71938;BME280;59810;48.800;9.086;2023-02-01T09:31:21;98241.81;;;5.51;72.12
71938;BME280;59810;48.800;9.086;2023-02-01T09:33:47;98240.22;;;5.56;71.33
71938;BME280;59810;48.800;9.086;2023-02-01T09:36:14;98240.63;;;5.60;70.68
71938;BME280;59810;48.800;9.086;2023-02-01T09:38:40;98246.59;;;5.62;69.91
71938;BME280;59810;48.800;9.086;2023-02-01T09:43:56;98266.78;;;5.65;70.97
71938;BME280;59810;48.800;9.086;2023-02-01T09:46:32;98260.44;;;5.79;70.55
71938;BME280;59810;48.800;9.086;2023-02-01T09:49:03;98261.03;;;5.81;69.86
71938;BME280;59810;48.800;9.086;2023-02-01T09:51:33;98265.38;;;5.75;69.61
71938;BME280;59810;48.800;9.086;2023-02-01T09:54:05;98272.59;;;5.81;69.40
71938;BME280;59810;48.800;9.086;2023-02-01T09:57:17;98263.53;;;5.82;69.26
71938;BME280;59810;48.800;9.086;2023-02-01T09:59:57;98274.84;;;5.78;68.54
71938;BME280;59810;48.800;9.086;2023-02-01T10:02:26;98272.16;;;5.71;69.68
71938;BME280;59810;48.800;9.086;2023-02-01T10:04:56;98274.44;;;5.68;69.01
71938;BME280;59810;48.800;9.086;2023-02-01T10:07:41;98268.47;;;5.72;69.14
71938;BME280;59810;48.800;9.086;2023-02-01T10:15:33;98278.22;;;5.93;68.68
71938;BME280;59810;48.800;9.086;2023-02-01T10:18:10;98290.38;;;5.96;67.74
71938;BME280;59810;48.800;9.086;2023-02-01T10:20:57;98293.47;;;5.92;68.25
71938;BME280;59810;48.800;9.086;2023-02-01T10:23:48;98291.59;;;5.86;68.22
71938;BME280;59810;48.800;9.086;2023-02-01T10:28:53;98286.06;;;5.95;66.76
71938;BME280;59810;48.800;9.086;2023-02-01T10:31:21;98288.94;;;5.93;66.79
71938;BME280;59810;48.800;9.086;2023-02-01T10:33:55;98292.66;;;5.99;66.60
71938;BME280;59810;48.800;9.086;2023-02-01T10:38:55;98290.56;;;5.87;66.97
71938;BME280;59810;48.800;9.086;2023-02-01T10:41:22;98307.50;;;5.95;66.30
71938;BME280;59810;48.800;9.086;2023-02-01T10:43:54;98292.25;;;6.02;66.53
71938;BME280;59810;48.800;9.086;2023-02-01T10:46:25;98308.31;;;6.02;66.59
71938;BME280;59810;48.800;9.086;2023-02-01T10:48:55;98299.03;;;5.98;66.13
71938;BME280;59810;48.800;9.086;2023-02-01T10:54:14;98295.13;;;5.93;66.08
71938;BME280;59810;48.800;9.086;2023-02-01T10:56:43;98301.06;;;5.89;66.00
71938;BME280;59810;48.800;9.086;2023-02-01T10:59:19;98308.28;;;5.88;65.82
71938;BME280;59810;48.800;9.086;2023-02-01T11:01:47;98297.72;;;5.80;66.23
71938;BME280;59810;48.800;9.086;2023-02-01T11:04:15;98296.69;;;5.81;66.01
71938;BME280;59810;48.800;9.086;2023-02-01T11:06:45;98290.56;;;5.87;65.12
71938;BME280;59810;48.800;9.086;2023-02-01T11:14:27;98286.81;;;5.82;65.18
71938;BME280;59810;48.800;9.086;2023-02-01T11:16:55;98283.31;;;5.75;65.24
71938;BME280;59810;48.800;9.086;2023-02-01T11:19:22;98286.19;;;5.73;65.84
71938;BME280;59810;48.800;9.086;2023-02-01T11:21:55;98280.00;;;5.73;65.54
71938;BME280;59810;48.800;9.086;2023-02-01T11:24:49;98281.84;;;5.72;65.31
71938;BME280;59810;48.800;9.086;2023-02-01T11:27:17;98277.13;;;5.74;65.63
71938;BME280;59810;48.800;9.086;2023-02-01T11:29:48;98269.69;;;5.76;64.88
71938;BME280;59810;48.800;9.086;2023-02-01T11:32:17;98263.13;;;5.85;64.67
71938;BME280;59810;48.800;9.086;2023-02-01T11:34:47;98252.03;;;6.02;67.32
71938;BME280;59810;48.800;9.086;2023-02-01T11:39:58;98246.47;;;6.03;63.13
71938;BME280;59810;48.800;9.086;2023-02-01T11:42:25;98257.19;;;5.97;63.90
71938;BME280;59810;48.800;9.086;2023-02-01T11:45:20;98235.75;;;5.97;63.06
71938;BME280;59810;48.800;9.086;2023-02-01T11:47:46;98233.06;;;5.97;64.58
71938;BME280;59810;48.800;9.086;2023-02-01T11:50:25;98219.06;;;5.95;63.01
71938;BME280;59810;48.800;9.086;2023-02-01T11:55:55;98217.00;;;6.23;62.67
71938;BME280;59810;48.800;9.086;2023-02-01T12:06:47;98224.22;;;5.89;62.87
71938;BME280;59810;48.800;9.086;2023-02-01T12:12:19;98204.19;;;5.85;62.99
71938;BME280;59810;48.800;9.086;2023-02-01T12:33:43;98216.31;;;5.81;63.23
71938;BME280;59810;48.800;9.086;2023-02-01T12:36:16;98219.41;;;5.78;63.62
71938;BME280;59810;48.800;9.086;2023-02-01T12:39:27;98210.56;;;5.71;63.72
71938;BME280;59810;48.800;9.086;2023-02-01T12:42:15;98214.66;;;5.67;64.26
71938;BME280;59810;48.800;9.086;2023-02-01T12:47:52;98219.00;;;5.68;64.49
71938;BME280;59810;48.800;9.086;2023-02-01T12:50:36;98207.66;;;5.59;65.25
71938;BME280;59810;48.800;9.086;2023-02-01T12:53:11;98221.03;;;5.53;65.93
71938;BME280;59810;48.800;9.086;2023-02-01T12:55:50;98214.00;;;5.52;66.37
71938;BME280;59810;48.800;9.086;2023-02-01T12:58:22;98213.19;;;5.45;66.71
71938;BME280;59810;48.800;9.086;2023-02-01T13:00:54;98227.19;;;5.40;67.50
71938;BME280;59810;48.800;9.086;2023-02-01T13:03:33;98229.84;;;5.40;67.03
71938;BME280;59810;48.800;9.086;2023-02-01T13:06:05;98217.69;;;5.38;67.82
71938;BME280;59810;48.800;9.086;2023-02-01T13:08:47;98211.31;;;5.39;67.27
71938;BME280;59810;48.800;9.086;2023-02-01T13:16:31;98218.94;;;5.48;67.16
71938;BME280;59810;48.800;9.086;2023-02-01T13:19:20;98191.75;;;5.51;66.04
71938;BME280;59810;48.800;9.086;2023-02-01T13:21:59;98197.53;;;5.48;66.11
71938;BME280;59810;48.800;9.086;2023-02-01T13:24:42;98196.50;;;5.49;66.19
71938;BME280;59810;48.800;9.086;2023-02-01T13:27:12;98184.97;;;5.49;66.36
71938;BME280;59810;48.800;9.086;2023-02-01T13:29:52;98191.59;;;5.53;65.74
71938;BME280;59810;48.800;9.086;2023-02-01T13:35:19;98191.38;;;5.61;65.90
71938;BME280;59810;48.800;9.086;2023-02-01T13:40:39;98198.38;;;5.55;66.16
71938;BME280;59810;48.800;9.086;2023-02-01T13:43:11;98200.63;;;5.52;66.91
71938;BME280;59810;48.800;9.086;2023-02-01T13:45:44;98199.56;;;5.40;68.39
71938;BME280;59810;48.800;9.086;2023-02-01T13:48:39;98191.94;;;5.37;68.38
71938;BME280;59810;48.800;9.086;2023-02-01T13:51:04;98186.59;;;5.37;67.96
71938;BME280;59810;48.800;9.086;2023-02-01T13:53:31;98189.47;;;5.28;68.72
71938;BME280;59810;48.800;9.086;2023-02-01T14:04:02;98162.69;;;5.28;68.54
71938;BME280;59810;48.800;9.086;2023-02-01T14:09:30;98162.91;;;5.40;68.85
71938;BME280;59810;48.800;9.086;2023-02-01T14:11:57;98162.72;;;5.48;69.27
71938;BME280;59810;48.800;9.086;2023-02-01T14:21:50;98162.72;;;5.48;66.53
71938;BME280;59810;48.800;9.086;2023-02-01T14:24:26;98177.13;;;5.41;67.01
71938;BME280;59810;48.800;9.086;2023-02-01T14:27:01;98180.00;;;5.46;66.89
71938;BME280;59810;48.800;9.086;2023-02-01T14:29:34;98165.59;;;5.47;66.41
71938;BME280;59810;48.800;9.086;2023-02-01T14:32:05;98168.91;;;5.49;66.09
71938;BME280;59810;48.800;9.086;2023-02-01T14:34:58;98180.63;;;5.41;66.89
71938;BME280;59810;48.800;9.086;2023-02-01T14:39:52;98192.56;;;5.39;66.73
71938;BME280;59810;48.800;9.086;2023-02-01T14:47:45;98215.84;;;5.31;67.67
71938;BME280;59810;48.800;9.086;2023-02-01T14:50:29;98209.44;;;5.32;68.07
71938;BME280;59810;48.800;9.086;2023-02-01T15:01:00;98206.56;;;5.27;68.34
71938;BME280;59810;48.800;9.086;2023-02-01T15:09:12;98217.66;;;5.24;67.60
71938;BME280;59810;48.800;9.086;2023-02-01T15:14:22;98204.91;;;5.26;68.22
71938;BME280;59810;48.800;9.086;2023-02-01T15:16:48;98213.16;;;5.31;68.41
71938;BME280;59810;48.800;9.086;2023-02-01T15:19:22;98217.47;;;5.32;68.04
71938;BME280;59810;48.800;9.086;2023-02-01T15:21:51;98213.78;;;5.34;68.32
71938;BME280;59810;48.800;9.086;2023-02-01T15:24:27;98211.72;;;5.36;67.83
71938;BME280;59810;48.800;9.086;2023-02-01T15:26:54;98213.78;;;5.34;67.94
71938;BME280;59810;48.800;9.086;2023-02-01T15:29:23;98210.47;;;5.31;68.25
71938;BME280;59810;48.800;9.086;2023-02-01T15:31:52;98209.25;;;5.27;68.83
71938;BME280;59810;48.800;9.086;2023-02-01T15:34:20;98214.19;;;5.24;68.58
71938;BME280;59810;48.800;9.086;2023-02-01T15:36:46;98212.94;;;5.26;68.11
71938;BME280;59810;48.800;9.086;2023-02-01T15:39:16;98211.69;;;5.22;67.92
71938;BME280;59810;48.800;9.086;2023-02-01T15:41:47;98205.53;;;5.28;68.22
71938;BME280;59810;48.800;9.086;2023-02-01T15:44:34;98217.06;;;5.29;67.99
71938;BME280;59810;48.800;9.086;2023-02-01T15:47:12;98209.25;;;5.27;67.43
71938;BME280;59810;48.800;9.086;2023-02-01T15:49:42;98224.88;;;5.24;67.30
71938;BME280;59810;48.800;9.086;2023-02-01T15:52:20;98220.97;;;5.26;66.59
71938;BME280;59810;48.800;9.086;2023-02-01T15:54:49;98230.66;;;5.27;66.68
71938;BME280;59810;48.800;9.086;2023-02-01T15:57:23;98234.56;;;5.25;66.34
71938;BME280;59810;48.800;9.086;2023-02-01T16:00:05;98235.59;;;5.30;65.64